Hood, Virginia
Current Conditions -  °F | °C
As of 4:53 PM on Tuesday 21 Oct 2014 (Local Time) from KCHO Reporting Station
Light Rain Light Rain  
Wind Chill: 55°   Ceiling: 6000
Heat Index: 55°   Visibility: 10mi
Dew Point: 50°   Wind: 6mph
Humidity: 83%   Direction: 340°NNW
Pressure: 29.83"   Gusts: NA
Location:  38.35°N, 78.38°W
Report Text: KCHO 212053Z 34005KT 10SM -RA OVC060 13/10 A2983 RMK AO2 LTG DSNT NE RAB14 SLP099 P0000 60000 T01280100 53006
Loading
Personal Weather Stations






























Interactive Weather Map
Tropical Storm Tracking
New forecast layout! Learn more

10-Day Weather Forecast

Advertisements
Track Severe Weather on mobile